sensor_id;sensor_type;location;lat;lon;timestamp;pressure;altitude;pressure_sealevel;temperature;humidity
79799;BME280;69283;48.024;11.090;2023-06-22T00:02:13;95404.53;;;21.14;66.45
79799;BME280;69283;48.024;11.090;2023-06-22T00:04:39;95414.81;;;21.06;66.31
79799;BME280;69283;48.024;11.090;2023-06-22T00:07:04;95394.78;;;20.99;66.64
79799;BME280;69283;48.024;11.090;2023-06-22T00:09:31;95408.56;;;20.95;66.53
79799;BME280;69283;48.024;11.090;2023-06-22T00:11:56;95411.72;;;20.97;66.45
79799;BME280;69283;48.024;11.090;2023-06-22T00:14:21;95410.59;;;20.84;66.76
79799;BME280;69283;48.024;11.090;2023-06-22T00:16:47;95414.94;;;20.85;66.62
79799;BME280;69283;48.024;11.090;2023-06-22T00:19:14;95412.56;;;20.80;66.93
79799;BME280;69283;48.024;11.090;2023-06-22T00:21:40;95407.91;;;20.70;66.76
79799;BME280;69283;48.024;11.090;2023-06-22T00:24:05;95404.75;;;20.71;66.81
79799;BME280;69283;48.024;11.090;2023-06-22T00:26:31;95402.75;;;20.75;66.64
79799;BME280;69283;48.024;11.090;2023-06-22T00:28:57;95411.03;;;20.72;66.79
79799;BME280;69283;48.024;11.090;2023-06-22T00:31:22;95409.09;;;20.69;66.71
79799;BME280;69283;48.024;11.090;2023-06-22T00:33:47;95409.50;;;20.63;66.82
79799;BME280;69283;48.024;11.090;2023-06-22T00:36:15;95402.81;;;20.61;66.95
79799;BME280;69283;48.024;11.090;2023-06-22T00:38:41;95403.63;;;20.58;67.07
79799;BME280;69283;48.024;11.090;2023-06-22T00:41:07;95382.78;;;20.53;67.05
79799;BME280;69283;48.024;11.090;2023-06-22T00:43:32;95389.06;;;20.57;66.63
79799;BME280;69283;48.024;11.090;2023-06-22T00:45:57;95394.19;;;20.62;66.27
79799;BME280;69283;48.024;11.090;2023-06-22T00:48:23;95380.81;;;20.54;65.95
79799;BME280;69283;48.024;11.090;2023-06-22T00:50:49;95398.47;;;20.67;65.67
79799;BME280;69283;48.024;11.090;2023-06-22T00:53:16;95388.25;;;20.68;65.63
79799;BME280;69283;48.024;11.090;2023-06-22T00:55:44;95364.69;;;20.56;65.58
79799;BME280;69283;48.024;11.090;2023-06-22T00:58:11;95374.16;;;20.51;66.30
79799;BME280;69283;48.024;11.090;2023-06-22T01:00:37;95367.44;;;20.56;66.19
79799;BME280;69283;48.024;11.090;2023-06-22T01:03:03;95363.50;;;20.60;65.68
79799;BME280;69283;48.024;11.090;2023-06-22T01:05:28;95367.81;;;20.61;65.59
79799;BME280;69283;48.024;11.090;2023-06-22T01:10:48;95348.16;;;20.59;65.20
79799;BME280;69283;48.024;11.090;2023-06-22T01:13:45;95344.25;;;20.53;65.54
79799;BME280;69283;48.024;11.090;2023-06-22T01:16:25;95335.66;;;20.44;65.67
79799;BME280;69283;48.024;11.090;2023-06-22T01:18:53;95328.59;;;20.43;65.81
79799;BME280;69283;48.024;11.090;2023-06-22T01:21:21;95345.09;;;20.47;65.91
79799;BME280;69283;48.024;11.090;2023-06-22T01:26:42;95349.00;;;20.39;66.02
79799;BME280;69283;48.024;11.090;2023-06-22T01:29:10;95353.34;;;20.36;66.21
79799;BME280;69283;48.024;11.090;2023-06-22T01:31:39;95353.34;;;20.36;66.33
79799;BME280;69283;48.024;11.090;2023-06-22T01:34:06;95345.13;;;20.29;66.73
79799;BME280;69283;48.024;11.090;2023-06-22T01:36:34;95347.50;;;20.23;67.05
79799;BME280;69283;48.024;11.090;2023-06-22T01:39:02;95355.34;;;20.28;67.48
79799;BME280;69283;48.024;11.090;2023-06-22T01:41:29;95351.81;;;20.24;67.78
79799;BME280;69283;48.024;11.090;2023-06-22T01:43:56;95366.75;;;20.23;67.97
79799;BME280;69283;48.024;11.090;2023-06-22T01:46:22;95349.84;;;20.18;68.22
79799;BME280;69283;48.024;11.090;2023-06-22T01:48:47;95347.53;;;20.13;68.41
79799;BME280;69283;48.024;11.090;2023-06-22T01:51:14;95355.38;;;20.11;68.63
79799;BME280;69283;48.024;11.090;2023-06-22T01:53:39;95357.34;;;20.14;68.67
79799;BME280;69283;48.024;11.090;2023-06-22T01:56:05;95361.66;;;20.18;68.75
79799;BME280;69283;48.024;11.090;2023-06-22T01:58:31;95354.59;;;20.10;68.81
79799;BME280;69283;48.024;11.090;2023-06-22T02:01:24;95369.56;;;20.05;69.32
79799;BME280;69283;48.024;11.090;2023-06-22T02:04:08;95364.06;;;20.05;69.41
79799;BME280;69283;48.024;11.090;2023-06-22T02:06:37;95373.88;;;20.10;69.58
79799;BME280;69283;48.024;11.090;2023-06-22T02:09:09;95361.69;;;19.97;70.13
79799;BME280;69283;48.024;11.090;2023-06-22T02:11:37;95361.75;;;19.86;70.30
79799;BME280;69283;48.024;11.090;2023-06-22T02:14:05;95377.03;;;19.98;70.14
79799;BME280;69283;48.024;11.090;2023-06-22T02:16:31;95375.06;;;19.91;70.13
79799;BME280;69283;48.024;11.090;2023-06-22T02:19:00;95387.66;;;19.89;70.81
79799;BME280;69283;48.024;11.090;2023-06-22T02:21:28;95378.22;;;19.79;70.95
79799;BME280;69283;48.024;11.090;2023-06-22T02:23:54;95381.78;;;19.83;70.88
79799;BME280;69283;48.024;11.090;2023-06-22T02:26:19;95368.81;;;19.73;70.99
79799;BME280;69283;48.024;11.090;2023-06-22T02:28:44;95393.16;;;19.85;71.04
79799;BME280;69283;48.024;11.090;2023-06-22T02:31:11;95384.50;;;19.80;71.35
79799;BME280;69283;48.024;11.090;2023-06-22T02:33:36;95380.59;;;19.77;71.56
79799;BME280;69283;48.024;11.090;2023-06-22T02:36:01;95384.13;;;19.78;71.63
79799;BME280;69283;48.024;11.090;2023-06-22T02:38:33;95384.91;;;19.74;71.35
79799;BME280;69283;48.024;11.090;2023-06-22T02:41:02;95387.66;;;19.74;71.65
79799;BME280;69283;48.024;11.090;2023-06-22T02:43:27;95394.72;;;19.72;71.84
79799;BME280;69283;48.024;11.090;2023-06-22T02:45:53;95391.97;;;19.79;72.00
79799;BME280;69283;48.024;11.090;2023-06-22T02:48:18;95382.94;;;19.71;71.99
79799;BME280;69283;48.024;11.090;2023-06-22T02:50:44;95379.03;;;19.65;72.32
79799;BME280;69283;48.024;11.090;2023-06-22T02:53:09;95389.25;;;19.68;72.36
79799;BME280;69283;48.024;11.090;2023-06-22T02:55:34;95386.09;;;19.63;72.52
79799;BME280;69283;48.024;11.090;2023-06-22T02:58:00;95386.88;;;19.60;72.70
79799;BME280;69283;48.024;11.090;2023-06-22T03:00:27;95379.00;;;19.62;72.54
79799;BME280;69283;48.024;11.090;2023-06-22T03:02:55;95361.75;;;19.58;71.96
79799;BME280;69283;48.024;11.090;2023-06-22T03:05:21;95377.88;;;19.63;72.22
79799;BME280;69283;48.024;11.090;2023-06-22T03:07:46;95371.97;;;19.54;72.63
79799;BME280;69283;48.024;11.090;2023-06-22T03:10:13;95370.38;;;19.45;72.98
79799;BME280;69283;48.024;11.090;2023-06-22T03:12:39;95352.69;;;19.29;73.35
79799;BME280;69283;48.024;11.090;2023-06-22T03:15:09;95362.91;;;19.35;73.26
79799;BME280;69283;48.024;11.090;2023-06-22T03:17:35;95374.28;;;19.37;73.57
79799;BME280;69283;48.024;11.090;2023-06-22T03:20:02;95351.88;;;19.21;73.75
79799;BME280;69283;48.024;11.090;2023-06-22T03:22:36;95369.16;;;19.39;73.60
79799;BME280;69283;48.024;11.090;2023-06-22T03:25:05;95366.03;;;19.37;73.44
79799;BME280;69283;48.024;11.090;2023-06-22T03:27:36;95340.53;;;19.26;73.73
79799;BME280;69283;48.024;11.090;2023-06-22T03:30:02;95365.63;;;19.39;73.75
79799;BME280;69283;48.024;11.090;2023-06-22T03:32:28;95358.97;;;19.36;73.91
79799;BME280;69283;48.024;11.090;2023-06-22T03:34:55;95360.94;;;19.39;73.87
79799;BME280;69283;48.024;11.090;2023-06-22T03:37:26;95376.66;;;19.42;73.72
79799;BME280;69283;48.024;11.090;2023-06-22T03:39:55;95374.66;;;19.36;74.10
79799;BME280;69283;48.024;11.090;2023-06-22T03:42:20;95369.97;;;19.36;73.94
79799;BME280;69283;48.024;11.090;2023-06-22T03:44:46;95388.41;;;19.39;73.86
79799;BME280;69283;48.024;11.090;2023-06-22T03:47:12;95383.69;;;19.36;73.61
79799;BME280;69283;48.024;11.090;2023-06-22T03:49:37;95377.81;;;19.41;73.23
79799;BME280;69283;48.024;11.090;2023-06-22T03:52:02;95394.72;;;19.43;73.75
79799;BME280;69283;48.024;11.090;2023-06-22T03:54:29;95395.50;;;19.48;73.36
79799;BME280;69283;48.024;11.090;2023-06-22T03:56:56;95386.84;;;19.38;73.96
79799;BME280;69283;48.024;11.090;2023-06-22T03:59:21;95380.94;;;19.33;73.51
79799;BME280;69283;48.024;11.090;2023-06-22T04:01:46;95399.00;;;19.37;72.73
79799;BME280;69283;48.024;11.090;2023-06-22T04:04:12;95389.97;;;19.40;72.56
79799;BME280;69283;48.024;11.090;2023-06-22T04:06:37;95380.16;;;19.29;72.07
79799;BME280;69283;48.024;11.090;2023-06-22T04:09:03;95397.03;;;19.38;71.24
79799;BME280;69283;48.024;11.090;2023-06-22T04:11:28;95391.16;;;19.39;71.67
79799;BME280;69283;48.024;11.090;2023-06-22T04:13:53;95393.91;;;19.36;71.34
79799;BME280;69283;48.024;11.090;2023-06-22T04:16:19;95394.72;;;19.47;71.13
79799;BME280;69283;48.024;11.090;2023-06-22T04:18:44;95381.38;;;19.45;71.10
79799;BME280;69283;48.024;11.090;2023-06-22T04:21:10;95384.88;;;19.53;70.72
79799;BME280;69283;48.024;11.090;2023-06-22T04:23:35;95377.44;;;19.50;70.53
79799;BME280;69283;48.024;11.090;2023-06-22T04:26:00;95381.75;;;19.48;70.02
79799;BME280;69283;48.024;11.090;2023-06-22T04:28:26;95391.59;;;19.59;70.16
79799;BME280;69283;48.024;11.090;2023-06-22T04:30:51;95395.50;;;19.62;70.39
79799;BME280;69283;48.024;11.090;2023-06-22T04:33:16;95381.00;;;19.54;70.30
79799;BME280;69283;48.024;11.090;2023-06-22T04:35:45;95389.22;;;19.61;70.02
79799;BME280;69283;48.024;11.090;2023-06-22T04:38:11;95384.13;;;19.60;69.96
79799;BME280;69283;48.024;11.090;2023-06-22T04:40:38;95382.16;;;19.57;70.60
79799;BME280;69283;48.024;11.090;2023-06-22T04:43:04;95387.69;;;19.64;70.13
79799;BME280;69283;48.024;11.090;2023-06-22T04:45:31;95388.06;;;19.66;70.60
79799;BME280;69283;48.024;11.090;2023-06-22T04:47:57;95394.72;;;19.75;70.53
79799;BME280;69283;48.024;11.090;2023-06-22T04:50:22;95395.09;;;19.81;70.18
79799;BME280;69283;48.024;11.090;2023-06-22T04:52:49;95391.19;;;19.89;69.73
79799;BME280;69283;48.024;11.090;2023-06-22T04:55:14;95377.84;;;19.84;69.56
79799;BME280;69283;48.024;11.090;2023-06-22T04:57:47;95391.53;;;20.09;69.48
79799;BME280;69283;48.024;11.090;2023-06-22T05:00:17;95382.50;;;20.09;69.27
79799;BME280;69283;48.024;11.090;2023-06-22T05:02:44;95378.94;;;20.15;68.49
79799;BME280;69283;48.024;11.090;2023-06-22T05:05:10;95374.19;;;20.33;69.09
79799;BME280;69283;48.024;11.090;2023-06-22T05:07:38;95374.97;;;20.41;68.38
79799;BME280;69283;48.024;11.090;2023-06-22T05:10:05;95375.34;;;20.47;68.21
79799;BME280;69283;48.024;11.090;2023-06-22T05:12:30;95362.41;;;20.44;67.72
79799;BME280;69283;48.024;11.090;2023-06-22T05:14:56;95379.28;;;20.49;67.91
79799;BME280;69283;48.024;11.090;2023-06-22T05:17:21;95371.78;;;20.53;67.95
79799;BME280;69283;48.024;11.090;2023-06-22T05:19:47;95361.53;;;20.57;68.04
79799;BME280;69283;48.024;11.090;2023-06-22T05:22:16;95370.63;;;20.51;68.37
79799;BME280;69283;48.024;11.090;2023-06-22T05:24:42;95363.91;;;20.55;67.96
79799;BME280;69283;48.024;11.090;2023-06-22T05:27:08;95361.16;;;20.55;68.14
79799;BME280;69283;48.024;11.090;2023-06-22T05:29:33;95366.25;;;20.60;68.34
79799;BME280;69283;48.024;11.090;2023-06-22T05:31:58;95370.50;;;20.76;67.62
79799;BME280;69283;48.024;11.090;2023-06-22T05:34:23;95368.50;;;20.87;67.68
79799;BME280;69283;48.024;11.090;2023-06-22T05:36:49;95373.94;;;20.98;66.53
79799;BME280;69283;48.024;11.090;2023-06-22T05:39:14;95373.88;;;21.08;65.97
79799;BME280;69283;48.024;11.090;2023-06-22T05:41:40;95380.00;;;21.37;66.12
79799;BME280;69283;48.024;11.090;2023-06-22T05:44:06;95378.63;;;21.63;65.55
79799;BME280;69283;48.024;11.090;2023-06-22T05:46:31;95380.47;;;21.77;64.47
79799;BME280;69283;48.024;11.090;2023-06-22T05:48:56;95383.84;;;21.95;63.40
79799;BME280;69283;48.024;11.090;2023-06-22T05:51:22;95371.19;;;22.01;63.33
79799;BME280;69283;48.024;11.090;2023-06-22T05:53:48;95369.91;;;22.13;62.98
79799;BME280;69283;48.024;11.090;2023-06-22T05:56:18;95357.69;;;22.14;62.64
79799;BME280;69283;48.024;11.090;2023-06-22T05:58:43;95355.78;;;22.07;62.97
79799;BME280;69283;48.024;11.090;2023-06-22T06:01:08;95352.16;;;22.14;62.63
79799;BME280;69283;48.024;11.090;2023-06-22T06:03:34;95345.34;;;22.26;62.05
79799;BME280;69283;48.024;11.090;2023-06-22T06:06:06;95338.22;;;22.28;62.07
79799;BME280;69283;48.024;11.090;2023-06-22T06:08:32;95346.03;;;22.33;62.13
79799;BME280;69283;48.024;11.090;2023-06-22T06:10:57;95348.84;;;22.30;61.94
79799;BME280;69283;48.024;11.090;2023-06-22T06:13:22;95352.31;;;22.37;62.43
79799;BME280;69283;48.024;11.090;2023-06-22T06:15:48;95356.84;;;22.55;61.41
79799;BME280;69283;48.024;11.090;2023-06-22T06:18:16;95340.63;;;22.57;60.84
79799;BME280;69283;48.024;11.090;2023-06-22T06:20:42;95350.31;;;22.72;60.77
79799;BME280;69283;48.024;11.090;2023-06-22T06:23:08;95339.47;;;22.88;59.99
79799;BME280;69283;48.024;11.090;2023-06-22T06:25:33;95341.41;;;22.91;60.58
79799;BME280;69283;48.024;11.090;2023-06-22T06:27:59;95340.25;;;23.16;59.38
79799;BME280;69283;48.024;11.090;2023-06-22T06:30:30;95347.97;;;23.28;59.05
79799;BME280;69283;48.024;11.090;2023-06-22T06:32:55;95355.47;;;23.54;59.42
79799;BME280;69283;48.024;11.090;2023-06-22T06:35:21;95339.25;;;23.80;57.58
79799;BME280;69283;48.024;11.090;2023-06-22T06:37:49;95365.84;;;23.97;56.99
79799;BME280;69283;48.024;11.090;2023-06-22T06:40:16;95337.09;;;23.91;56.11
79799;BME280;69283;48.024;11.090;2023-06-22T06:42:44;95347.78;;;24.12;56.09
79799;BME280;69283;48.024;11.090;2023-06-22T06:45:12;95348.97;;;24.35;56.13
79799;BME280;69283;48.024;11.090;2023-06-22T06:47:41;95345.72;;;24.16;55.89
79799;BME280;69283;48.024;11.090;2023-06-22T06:50:07;95350.16;;;24.34;55.96
79799;BME280;69283;48.024;11.090;2023-06-22T06:52:33;95344.22;;;24.12;55.71
79799;BME280;69283;48.024;11.090;2023-06-22T06:54:59;95344.41;;;24.01;55.96
79799;BME280;69283;48.024;11.090;2023-06-22T06:57:24;95355.38;;;24.08;57.05
79799;BME280;69283;48.024;11.090;2023-06-22T06:59:56;95342.53;;;24.18;56.46
79799;BME280;69283;48.024;11.090;2023-06-22T07:02:22;95345.53;;;24.27;56.05
79799;BME280;69283;48.024;11.090;2023-06-22T07:04:57;95346.00;;;24.45;55.52
79799;BME280;69283;48.024;11.090;2023-06-22T07:07:23;95341.50;;;24.71;55.42
79799;BME280;69283;48.024;11.090;2023-06-22T07:09:49;95339.31;;;24.99;54.29
79799;BME280;69283;48.024;11.090;2023-06-22T07:12:14;95336.38;;;25.26;53.78
79799;BME280;69283;48.024;11.090;2023-06-22T07:14:40;95326.94;;;25.39;53.20
79799;BME280;69283;48.024;11.090;2023-06-22T07:17:06;95330.47;;;25.40;53.68
79799;BME280;69283;48.024;11.090;2023-06-22T07:19:32;95326.78;;;25.79;52.51
79799;BME280;69283;48.024;11.090;2023-06-22T07:21:58;95325.13;;;25.65;51.96
79799;BME280;69283;48.024;11.090;2023-06-22T07:24:26;95320.44;;;25.62;51.77
79799;BME280;69283;48.024;11.090;2023-06-22T07:26:52;95317.22;;;25.80;53.19
79799;BME280;69283;48.024;11.090;2023-06-22T07:29:18;95320.19;;;25.89;52.35
79799;BME280;69283;48.024;11.090;2023-06-22T07:31:45;95326.03;;;26.24;51.50
79799;BME280;69283;48.024;11.090;2023-06-22T07:34:13;95301.50;;;26.06;51.43
79799;BME280;69283;48.024;11.090;2023-06-22T07:36:41;95302.75;;;25.89;52.60
79799;BME280;69283;48.024;11.090;2023-06-22T07:39:07;95306.00;;;26.00;51.31
79799;BME280;69283;48.024;11.090;2023-06-22T07:41:35;95303.56;;;26.02;51.95
79799;BME280;69283;48.024;11.090;2023-06-22T07:44:03;95296.19;;;26.12;51.68
79799;BME280;69283;48.024;11.090;2023-06-22T07:46:33;95304.66;;;26.21;52.10
79799;BME280;69283;48.024;11.090;2023-06-22T07:48:59;95298.34;;;26.49;51.06
79799;BME280;69283;48.024;11.090;2023-06-22T07:51:25;95299.41;;;26.39;51.15
79799;BME280;69283;48.024;11.090;2023-06-22T07:53:51;95297.34;;;26.43;50.83
79799;BME280;69283;48.024;11.090;2023-06-22T07:56:16;95296.84;;;26.74;51.06
79799;BME280;69283;48.024;11.090;2023-06-22T07:58:48;95317.03;;;27.16;49.84
79799;BME280;69283;48.024;11.090;2023-06-22T08:01:16;95297.44;;;27.19;49.32
79799;BME280;69283;48.024;11.090;2023-06-22T08:03:44;95301.78;;;27.33;49.80
79799;BME280;69283;48.024;11.090;2023-06-22T08:06:12;95302.03;;;27.13;48.96
79799;BME280;69283;48.024;11.090;2023-06-22T08:08:38;95302.13;;;27.22;48.80
79799;BME280;69283;48.024;11.090;2023-06-22T08:11:08;95305.25;;;27.24;48.95
79799;BME280;69283;48.024;11.090;2023-06-22T08:13:34;95298.56;;;27.35;49.53
79799;BME280;69283;48.024;11.090;2023-06-22T08:15:59;95293.00;;;27.47;48.34
79799;BME280;69283;48.024;11.090;2023-06-22T08:18:27;95308.91;;;27.72;48.32
79799;BME280;69283;48.024;11.090;2023-06-22T08:20:53;95312.69;;;27.66;48.02
79799;BME280;69283;48.024;11.090;2023-06-22T08:23:20;95299.41;;;27.57;47.08
79799;BME280;69283;48.024;11.090;2023-06-22T08:25:48;95295.00;;;27.47;48.05
79799;BME280;69283;48.024;11.090;2023-06-22T08:28:34;95299.09;;;27.55;47.48
79799;BME280;69283;48.024;11.090;2023-06-22T08:31:16;95285.81;;;27.84;48.13
79799;BME280;69283;48.024;11.090;2023-06-22T08:33:52;95290.66;;;28.06;47.60
79799;BME280;69283;48.024;11.090;2023-06-22T08:36:46;95283.19;;;28.03;46.17
79799;BME280;69283;48.024;11.090;2023-06-22T08:39:16;95286.19;;;28.08;47.22
79799;BME280;69283;48.024;11.090;2023-06-22T08:41:42;95302.63;;;28.28;46.41
79799;BME280;69283;48.024;11.090;2023-06-22T08:44:07;95279.84;;;28.08;46.15
79799;BME280;69283;48.024;11.090;2023-06-22T08:46:37;95282.81;;;28.13;45.61
79799;BME280;69283;48.024;11.090;2023-06-22T08:49:10;95288.69;;;28.28;45.76
79799;BME280;69283;48.024;11.090;2023-06-22T08:51:36;95304.69;;;28.59;45.38
79799;BME280;69283;48.024;11.090;2023-06-22T08:54:03;95302.44;;;28.66;45.10
79799;BME280;69283;48.024;11.090;2023-06-22T08:56:34;95279.47;;;28.62;44.64
79799;BME280;69283;48.024;11.090;2023-06-22T08:59:09;95277.81;;;28.65;44.54
79799;BME280;69283;48.024;11.090;2023-06-22T09:01:37;95284.66;;;28.73;43.89
79799;BME280;69283;48.024;11.090;2023-06-22T09:04:02;95286.69;;;28.82;44.55
79799;BME280;69283;48.024;11.090;2023-06-22T09:06:29;95288.34;;;28.92;44.82
79799;BME280;69283;48.024;11.090;2023-06-22T09:08:56;95283.56;;;29.01;43.92
79799;BME280;69283;48.024;11.090;2023-06-22T09:11:36;95290.22;;;29.35;43.55
79799;BME280;69283;48.024;11.090;2023-06-22T09:14:06;95282.56;;;29.48;44.01
79799;BME280;69283;48.024;11.090;2023-06-22T09:16:34;95286.03;;;29.80;42.92
79799;BME280;69283;48.024;11.090;2023-06-22T09:19:00;95287.13;;;30.01;41.75
79799;BME280;69283;48.024;11.090;2023-06-22T09:21:28;95289.19;;;30.09;41.41
79799;BME280;69283;48.024;11.090;2023-06-22T09:23:54;95270.41;;;30.10;40.36
79799;BME280;69283;48.024;11.090;2023-06-22T09:26:20;95266.22;;;30.14;40.50
79799;BME280;69283;48.024;11.090;2023-06-22T09:28:46;95272.69;;;30.02;40.90
79799;BME280;69283;48.024;11.090;2023-06-22T09:31:13;95260.03;;;30.10;41.40
79799;BME280;69283;48.024;11.090;2023-06-22T09:33:42;95269.31;;;30.35;40.68
79799;BME280;69283;48.024;11.090;2023-06-22T09:36:08;95267.44;;;30.41;38.97
79799;BME280;69283;48.024;11.090;2023-06-22T09:38:42;95260.31;;;30.40;39.79
79799;BME280;69283;48.024;11.090;2023-06-22T09:41:08;95265.25;;;30.54;39.87
79799;BME280;69283;48.024;11.090;2023-06-22T09:43:33;95259.34;;;30.70;39.16
79799;BME280;69283;48.024;11.090;2023-06-22T09:46:02;95239.75;;;30.79;39.14
79799;BME280;69283;48.024;11.090;2023-06-22T09:48:30;95235.31;;;30.64;38.99
79799;BME280;69283;48.024;11.090;2023-06-22T09:50:56;95232.94;;;30.62;38.84
79799;BME280;69283;48.024;11.090;2023-06-22T09:53:21;95248.59;;;30.87;38.43
79799;BME280;69283;48.024;11.090;2023-06-22T09:55:47;95230.09;;;30.90;38.77
79799;BME280;69283;48.024;11.090;2023-06-22T09:58:13;95236.41;;;30.99;38.19
79799;BME280;69283;48.024;11.090;2023-06-22T10:00:45;95226.56;;;31.13;38.47
79799;BME280;69283;48.024;11.090;2023-06-22T10:03:11;95231.69;;;31.24;37.63
79799;BME280;69283;48.024;11.090;2023-06-22T10:05:36;95235.50;;;31.35;37.03
79799;BME280;69283;48.024;11.090;2023-06-22T10:08:02;95244.50;;;31.39;36.85
79799;BME280;69283;48.024;11.090;2023-06-22T10:10:27;95222.88;;;31.40;37.50
79799;BME280;69283;48.024;11.090;2023-06-22T10:12:57;95235.59;;;31.50;37.05
79799;BME280;69283;48.024;11.090;2023-06-22T10:15:23;95231.06;;;31.53;36.75
79799;BME280;69283;48.024;11.090;2023-06-22T10:17:48;95224.03;;;31.57;36.89
79799;BME280;69283;48.024;11.090;2023-06-22T10:20:14;95222.25;;;31.69;36.85
79799;BME280;69283;48.024;11.090;2023-06-22T10:22:41;95217.03;;;31.86;36.22
79799;BME280;69283;48.024;11.090;2023-06-22T10:25:07;95221.00;;;31.94;35.04
79799;BME280;69283;48.024;11.090;2023-06-22T10:27:33;95226.50;;;31.88;35.75
79799;BME280;69283;48.024;11.090;2023-06-22T10:30:01;95215.47;;;31.85;36.18
79799;BME280;69283;48.024;11.090;2023-06-22T10:32:27;95215.28;;;31.88;36.02
79799;BME280;69283;48.024;11.090;2023-06-22T10:34:58;95220.59;;;31.86;35.42
79799;BME280;69283;48.024;11.090;2023-06-22T10:37:24;95221.47;;;31.92;36.07
79799;BME280;69283;48.024;11.090;2023-06-22T10:39:49;95217.41;;;31.93;36.09
79799;BME280;69283;48.024;11.090;2023-06-22T10:42:14;95216.94;;;31.95;36.04
79799;BME280;69283;48.024;11.090;2023-06-22T10:44:40;95222.94;;;32.02;35.09
79799;BME280;69283;48.024;11.090;2023-06-22T10:47:08;95218.66;;;31.92;34.33
79799;BME280;69283;48.024;11.090;2023-06-22T10:49:33;95201.47;;;31.85;34.15
79799;BME280;69283;48.024;11.090;2023-06-22T10:52:01;95214.31;;;31.91;34.62
79799;BME280;69283;48.024;11.090;2023-06-22T10:54:29;95190.47;;;31.96;34.15
79799;BME280;69283;48.024;11.090;2023-06-22T10:56:57;95196.19;;;32.16;34.27
79799;BME280;69283;48.024;11.090;2023-06-22T10:59:23;95210.47;;;32.42;34.03
79799;BME280;69283;48.024;11.090;2023-06-22T11:01:49;95199.84;;;32.46;33.32
79799;BME280;69283;48.024;11.090;2023-06-22T11:04:14;95207.66;;;32.57;32.38
79799;BME280;69283;48.024;11.090;2023-06-22T11:06:49;95188.81;;;32.43;32.13
79799;BME280;69283;48.024;11.090;2023-06-22T11:09:17;95206.50;;;32.49;33.17
79799;BME280;69283;48.024;11.090;2023-06-22T11:14:54;95197.72;;;32.71;31.64
79799;BME280;69283;48.024;11.090;2023-06-22T11:17:53;95205.66;;;32.87;31.35
79799;BME280;69283;48.024;11.090;2023-06-22T11:20:42;95188.59;;;32.76;31.61
79799;BME280;69283;48.024;11.090;2023-06-22T11:23:20;95204.28;;;32.97;31.65
79799;BME280;69283;48.024;11.090;2023-06-22T11:26:31;95205.97;;;33.24;31.87
79799;BME280;69283;48.024;11.090;2023-06-22T11:29:21;95180.94;;;33.41;31.71
79799;BME280;69283;48.024;11.090;2023-06-22T11:32:15;95180.34;;;33.51;31.06
79799;BME280;69283;48.024;11.090;2023-06-22T11:34:40;95178.75;;;33.65;31.11
79799;BME280;69283;48.024;11.090;2023-06-22T11:37:28;95181.72;;;33.62;29.42
79799;BME280;69283;48.024;11.090;2023-06-22T11:39:56;95168.88;;;33.55;29.33
79799;BME280;69283;48.024;11.090;2023-06-22T11:42:23;95175.34;;;33.61;29.81
79799;BME280;69283;48.024;11.090;2023-06-22T11:44:49;95166.84;;;33.76;29.46
79799;BME280;69283;48.024;11.090;2023-06-22T11:47:14;95161.22;;;33.76;28.88
79799;BME280;69283;48.024;11.090;2023-06-22T11:49:41;95159.91;;;33.71;28.46
79799;BME280;69283;48.024;11.090;2023-06-22T11:52:06;95165.31;;;33.75;28.99
79799;BME280;69283;48.024;11.090;2023-06-22T11:54:32;95155.34;;;33.74;29.78
79799;BME280;69283;48.024;11.090;2023-06-22T11:56:57;95157.53;;;33.84;30.78
79799;BME280;69283;48.024;11.090;2023-06-22T11:59:23;95167.63;;;33.97;31.29
79799;BME280;69283;48.024;11.090;2023-06-22T12:01:48;95159.31;;;34.08;31.77
79799;BME280;69283;48.024;11.090;2023-06-22T12:04:16;95160.09;;;34.08;31.07
79799;BME280;69283;48.024;11.090;2023-06-22T12:06:41;95161.53;;;34.24;31.26
79799;BME280;69283;48.024;11.090;2023-06-22T12:09:08;95162.78;;;34.23;30.85
79799;BME280;69283;48.024;11.090;2023-06-22T12:11:34;95154.16;;;34.27;30.65
79799;BME280;69283;48.024;11.090;2023-06-22T12:13:59;95142.25;;;34.37;30.38
79799;BME280;69283;48.024;11.090;2023-06-22T12:16:30;95146.94;;;34.46;29.39
79799;BME280;69283;48.024;11.090;2023-06-22T12:19:03;95141.88;;;34.50;29.49
79799;BME280;69283;48.024;11.090;2023-06-22T12:21:28;95144.56;;;34.65;28.93
79799;BME280;69283;48.024;11.090;2023-06-22T12:23:54;95135.38;;;34.70;29.06
79799;BME280;69283;48.024;11.090;2023-06-22T12:26:19;95128.78;;;34.78;28.33
79799;BME280;69283;48.024;11.090;2023-06-22T12:28:47;95132.47;;;34.85;27.59
79799;BME280;69283;48.024;11.090;2023-06-22T12:31:12;95126.19;;;34.75;27.38
79799;BME280;69283;48.024;11.090;2023-06-22T12:33:38;95136.38;;;34.67;28.26
79799;BME280;69283;48.024;11.090;2023-06-22T12:36:06;95126.03;;;34.53;28.21
79799;BME280;69283;48.024;11.090;2023-06-22T12:38:34;95131.63;;;34.47;28.54
79799;BME280;69283;48.024;11.090;2023-06-22T12:41:04;95124.75;;;34.54;28.34
79799;BME280;69283;48.024;11.090;2023-06-22T12:46:31;95107.53;;;34.77;31.13
79799;BME280;69283;48.024;11.090;2023-06-22T12:49:02;95108.34;;;34.84;32.68
79799;BME280;69283;48.024;11.090;2023-06-22T12:51:29;95101.38;;;34.73;30.96
79799;BME280;69283;48.024;11.090;2023-06-22T12:54:00;95104.59;;;34.87;30.73
79799;BME280;69283;48.024;11.090;2023-06-22T12:56:28;95118.47;;;35.01;31.46
79799;BME280;69283;48.024;11.090;2023-06-22T12:58:53;95108.69;;;34.91;30.71
79799;BME280;69283;48.024;11.090;2023-06-22T13:01:36;95118.44;;;34.96;31.76
79799;BME280;69283;48.024;11.090;2023-06-22T13:04:02;95109.84;;;34.79;31.20
79799;BME280;69283;48.024;11.090;2023-06-22T13:06:30;95106.38;;;34.58;30.73